Hiram, Ohio
Current Conditions -  °F | °C
As of 9:41 AM on Friday 28 Nov 2014 (Local Time) from KPOV Reporting Station
Scattered Clouds Scattered Clouds  
Wind Chill: 12°   Ceiling: Unl
Heat Index: 22°   Visibility: 10mi
Dew Point: 13°   Wind: 9mph
Humidity: 67%   Direction: 250°WSW
Pressure: 30.32"   Gusts: NA
Location:  41.31°N, 81.14°W
Report Text: KPOV 281441Z AUTO 25008KT 10SM SCT033 M05/M11 A3032 RMK AO2 T10541107
Loading
Personal Weather Stations






























Interactive Weather Map New forecast layout! Learn more

10-Day Weather Forecast

Advertisements
Track Severe Weather on mobile